Time;durP1;ratioP1;P1;durP2;ratioP2;P2;SDS_P1;SDS_P2;PMS_P1;PMS_P2;Temp;Humidity;BMP_temperature;BMP_pressure;BME280_temperature;BME280_humidity;BME280_pressure;Samples;Min_cycle;Max_cycle;Signal;HPM_P1;HPM_P2
2021/06/17 00:00:10;;;;;;;8.60;6.17;;;23.50;99.90;;;;;;4973329;28;20204;-65
2021/06/17 00:02:37;;;;;;;8.57;6.10;;;23.50;99.90;;;;;;4973218;28;20258;-65
2021/06/17 00:05:05;;;;;;;8.27;6.13;;;23.50;99.90;;;;;;4973338;28;20217;-65
2021/06/17 00:07:32;;;;;;;8.90;5.97;;;23.40;99.90;;;;;;4973220;28;20285;-65
2021/06/17 00:09:58;;;;;;;10.50;5.90;;;23.40;99.90;;;;;;4973020;28;20208;-65
2021/06/17 00:12:25;;;;;;;6.60;6.00;;;23.40;99.90;;;;;;4973158;28;20241;-64
2021/06/17 00:14:52;;;;;;;7.57;5.77;;;23.40;99.90;;;;;;4973138;28;20627;-64
2021/06/17 00:17:19;;;;;;;6.30;5.70;;;23.30;99.90;;;;;;4972770;28;20229;-64
2021/06/17 00:19:46;;;;;;;11.07;6.03;;;23.30;99.90;;;;;;4973138;28;20215;-64
2021/06/17 00:22:13;;;;;;;6.57;5.87;;;23.30;99.90;;;;;;4972866;28;20200;-65
2021/06/17 00:24:40;;;;;;;7.00;5.87;;;23.20;99.90;;;;;;4972809;28;20208;-64
2021/06/17 00:27:07;;;;;;;7.87;6.33;;;23.20;99.90;;;;;;4972947;28;20240;-65
2021/06/17 00:29:34;;;;;;;7.07;5.73;;;23.10;99.90;;;;;;4972817;28;20294;-65
2021/06/17 00:32:00;;;;;;;7.53;6.07;;;23.10;99.90;;;;;;4972484;28;20754;-65
2021/06/17 00:34:28;;;;;;;6.93;6.20;;;23.10;99.90;;;;;;4972757;28;20235;-65
2021/06/17 00:36:55;;;;;;;8.67;6.43;;;23.10;99.90;;;;;;4972661;28;20232;-65
2021/06/17 00:39:22;;;;;;;7.43;5.70;;;23.00;99.90;;;;;;4972508;28;20254;-65
2021/06/17 00:41:48;;;;;;;6.37;5.77;;;23.00;99.90;;;;;;4972668;28;20584;-65
2021/06/17 00:44:15;;;;;;;8.03;5.90;;;22.90;99.90;;;;;;4972518;28;20212;-65
2021/06/17 00:46:42;;;;;;;8.23;6.33;;;22.90;99.90;;;;;;4972627;28;20208;-65
2021/06/17 00:49:08;;;;;;;7.83;6.00;;;22.90;99.90;;;;;;4972515;28;20637;-64
2021/06/17 00:51:36;;;;;;;8.53;5.63;;;22.80;99.90;;;;;;4972356;28;20242;-65
2021/06/17 00:54:03;;;;;;;12.40;5.97;;;22.80;99.90;;;;;;4972622;28;20234;-64
2021/06/17 00:56:31;;;;;;;8.27;5.73;;;22.80;99.90;;;;;;4972273;28;20679;-64
2021/06/17 00:58:58;;;;;;;6.50;5.57;;;22.80;99.90;;;;;;4972622;28;20231;-65
2021/06/17 01:01:25;;;;;;;9.17;5.70;;;22.70;99.90;;;;;;4972217;28;20584;-65
2021/06/17 01:03:52;;;;;;;6.57;5.70;;;22.70;99.90;;;;;;4971163;28;20722;-65
2021/06/17 01:06:19;;;;;;;9.00;5.70;;;22.70;99.90;;;;;;4972088;28;20220;-65
2021/06/17 01:09:02;;;;;;;7.20;5.83;;;22.70;99.90;;;;;;4972423;28;20232;-65
2021/06/17 01:11:34;;;;;;;5.97;5.37;;;22.70;99.90;;;;;;4972163;28;20208;-64
2021/06/17 01:14:06;;;;;;;6.27;5.57;;;22.70;99.90;;;;;;4972367;28;20209;-64
2021/06/17 01:16:37;;;;;;;7.87;5.70;;;22.60;99.90;;;;;;4971970;28;20209;-64
2021/06/17 01:19:14;;;;;;;7.57;5.93;;;22.60;99.90;;;;;;4972047;28;20915;-65
2021/06/17 01:22:09;;;;;;;6.13;5.53;;;22.60;99.90;;;;;;4972030;28;20637;-64
2021/06/17 01:24:57;;;;;;;8.10;5.53;;;22.60;99.90;;;;;;4972234;28;20212;-64
2021/06/17 01:27:37;;;;;;;7.70;5.73;;;22.50;99.90;;;;;;4972040;28;20228;-64
2021/06/17 01:30:08;;;;;;;9.20;5.23;;;22.50;99.90;;;;;;4971949;28;20208;-65
2021/06/17 01:32:36;;;;;;;5.83;5.20;;;22.40;99.90;;;;;;4971691;28;20769;-64
2021/06/17 01:35:05;;;;;;;7.90;5.57;;;22.40;99.90;;;;;;4971964;28;20212;-65
2021/06/17 01:37:33;;;;;;;6.03;5.43;;;22.30;99.90;;;;;;4971839;28;20228;-64
2021/06/17 01:40:02;;;;;;;7.20;5.83;;;22.30;99.90;;;;;;4972008;28;20219;-65
2021/06/17 01:42:30;;;;;;;9.00;6.17;;;22.20;99.90;;;;;;4971912;28;20208;-64
2021/06/17 01:44:58;;;;;;;7.77;5.77;;;22.20;99.90;;;;;;4971867;28;20734;-64
2021/06/17 01:47:30;;;;;;;7.00;5.33;;;22.20;99.90;;;;;;4971591;28;20225;-64
2021/06/17 01:49:58;;;;;;;7.17;6.10;;;22.20;99.90;;;;;;4971514;28;20213;-64
2021/06/17 01:52:28;;;;;;;6.47;5.37;;;22.10;99.90;;;;;;4971604;28;20229;-64
2021/06/17 01:54:57;;;;;;;5.40;4.90;;;22.10;99.90;;;;;;4971788;28;20205;-64
2021/06/17 01:57:25;;;;;;;5.70;5.20;;;22.10;99.90;;;;;;4971622;28;20278;-64
2021/06/17 01:59:53;;;;;;;7.87;5.83;;;22.10;99.90;;;;;;4971308;28;20208;-65
2021/06/17 02:02:21;;;;;;;5.97;5.37;;;22.10;99.90;;;;;;4971629;28;20581;-64
2021/06/17 02:04:51;;;;;;;7.63;5.63;;;22.10;99.90;;;;;;4971239;28;20638;-65
2021/06/17 02:07:20;;;;;;;7.83;5.87;;;22.00;99.90;;;;;;4971510;28;20286;-64
2021/06/17 02:09:50;;;;;;;9.37;5.83;;;22.00;99.90;;;;;;4971308;28;20693;-64
2021/06/17 02:12:17;;;;;;;8.60;6.17;;;22.00;99.90;;;;;;4971244;28;20597;-64
2021/06/17 02:14:44;;;;;;;8.30;5.63;;;21.90;99.90;;;;;;4970769;28;20223;-65
2021/06/17 02:17:13;;;;;;;7.33;5.77;;;21.90;99.90;;;;;;4971057;28;20232;-64
2021/06/17 02:19:40;;;;;;;7.20;5.33;;;21.90;99.90;;;;;;4971060;28;20691;-64
2021/06/17 02:22:10;;;;;;;6.83;5.37;;;21.80;99.90;;;;;;4971145;28;20215;-64
2021/06/17 02:24:39;;;;;;;6.07;5.40;;;21.80;99.90;;;;;;4971268;28;20216;-65
2021/06/17 02:27:09;;;;;;;6.53;5.73;;;21.80;99.90;;;;;;4971091;28;20270;-64
2021/06/17 02:29:40;;;;;;;6.83;5.33;;;21.80;99.90;;;;;;4970904;28;20220;-64
2021/06/17 02:32:09;;;;;;;8.87;5.70;;;21.80;99.90;;;;;;4970922;28;20196;-64
2021/06/17 02:34:37;;;;;;;7.47;5.80;;;21.70;99.90;;;;;;4970917;28;20716;-64
2021/06/17 02:37:05;;;;;;;6.70;5.83;;;21.80;99.90;;;;;;4970793;28;20286;-64
2021/06/17 02:39:35;;;;;;;6.60;5.50;;;21.80;99.90;;;;;;4970956;28;20212;-64
2021/06/17 02:42:02;;;;;;;6.33;5.67;;;21.70;99.90;;;;;;4970711;28;20216;-64
2021/06/17 02:44:32;;;;;;;6.20;5.60;;;21.70;99.90;;;;;;4970855;28;20217;-64
2021/06/17 02:46:59;;;;;;;7.63;5.33;;;21.70;99.90;;;;;;4970724;28;20236;-64
2021/06/17 02:49:25;;;;;;;8.17;5.33;;;21.70;99.90;;;;;;4970931;28;20208;-65
2021/06/17 02:51:52;;;;;;;8.77;5.40;;;21.70;99.90;;;;;;4970794;28;20212;-64
2021/06/17 02:54:19;;;;;;;6.53;5.60;;;21.70;99.90;;;;;;4970824;28;20231;-65
2021/06/17 02:56:59;;;;;;;6.07;5.47;;;21.60;99.90;;;;;;4970740;28;20208;-65
2021/06/17 02:59:44;;;;;;;6.00;5.40;;;21.60;99.90;;;;;;4970793;28;20219;-64
2021/06/17 03:02:14;;;;;;;7.83;5.47;;;21.70;99.90;;;;;;4970535;28;20212;-64
2021/06/17 03:04:46;;;;;;;7.83;5.20;;;21.60;99.90;;;;;;4970668;28;20208;-64
2021/06/17 03:07:21;;;;;;;9.17;5.87;;;21.70;99.90;;;;;;4970200;28;20243;-64
2021/06/17 03:09:51;;;;;;;6.23;5.63;;;21.70;99.90;;;;;;4970618;28;20215;-64
2021/06/17 03:12:23;;;;;;;7.97;5.73;;;21.70;99.90;;;;;;4970375;28;20216;-64
2021/06/17 03:14:51;;;;;;;6.37;5.20;;;21.70;99.90;;;;;;4970543;28;20212;-64
2021/06/17 03:17:21;;;;;;;8.57;5.33;;;21.70;99.90;;;;;;4970488;28;20232;-64
2021/06/17 03:19:51;;;;;;;6.23;5.13;;;21.60;99.90;;;;;;4970109;28;20215;-64
2021/06/17 03:22:19;;;;;;;7.23;5.20;;;21.60;99.90;;;;;;4970174;28;20669;-64
2021/06/17 03:24:49;;;;;;;6.17;5.37;;;21.60;99.90;;;;;;4970425;28;20211;-64
2021/06/17 03:27:17;;;;;;;7.43;5.47;;;21.60;99.90;;;;;;4971386;28;20720;-64
2021/06/17 03:29:48;;;;;;;7.47;5.80;;;21.60;99.90;;;;;;4973575;28;20226;-64
2021/06/17 03:32:16;;;;;;;6.00;5.37;;;21.60;99.90;;;;;;4973618;28;20229;-64
2021/06/17 03:34:44;;;;;;;8.10;5.93;;;21.60;99.90;;;;;;4974038;28;20204;-64
2021/06/17 03:37:13;;;;;;;11.20;5.70;;;21.60;99.90;;;;;;4973859;28;20716;-64
2021/06/17 03:39:41;;;;;;;7.93;5.57;;;21.60;99.90;;;;;;4973650;28;20220;-64
2021/06/17 03:42:10;;;;;;;8.20;5.50;;;21.60;99.90;;;;;;4973734;28;20208;-64
2021/06/17 03:44:38;;;;;;;7.90;5.97;;;21.60;99.90;;;;;;4973616;28;20209;-64
2021/06/17 03:47:08;;;;;;;6.00;5.40;;;21.60;99.90;;;;;;4973531;28;20231;-64
2021/06/17 03:49:36;;;;;;;6.40;5.30;;;21.60;99.90;;;;;;4971149;28;20232;-65
2021/06/17 03:52:03;;;;;;;8.57;5.60;;;21.60;99.90;;;;;;4973463;28;20204;-64
2021/06/17 03:54:31;;;;;;;6.63;5.40;;;21.60;99.90;;;;;;4972663;28;20228;-65
2021/06/17 03:57:00;;;;;;;6.17;5.37;;;21.60;99.90;;;;;;4972499;28;20224;-62
2021/06/17 03:59:30;;;;;;;5.63;5.03;;;21.70;99.90;;;;;;4973013;28;20577;-63
2021/06/17 04:01:57;;;;;;;6.40;5.70;;;21.70;99.90;;;;;;4971977;28;21541;-63
2021/06/17 04:04:25;;;;;;;5.87;5.27;;;21.80;99.90;;;;;;4972438;28;20200;-61
2021/06/17 04:06:55;;;;;;;7.73;5.10;;;21.90;99.90;;;;;;4972900;28;20901;-62
2021/06/17 04:09:27;;;;;;;5.40;4.90;;;21.90;99.90;;;;;;4973305;28;20610;-63
2021/06/17 04:11:56;;;;;;;9.83;5.30;;;22.00;99.90;;;;;;4972604;28;20212;-62
2021/06/17 04:14:24;;;;;;;7.67;5.13;;;22.00;99.90;;;;;;4972934;28;20235;-61
2021/06/17 04:16:53;;;;;;;6.07;4.73;;;22.10;99.90;;;;;;4972897;28;20230;-61
2021/06/17 04:19:21;;;;;;;5.50;5.00;;;22.10;99.90;;;;;;4973027;28;20219;-62
2021/06/17 04:21:52;;;;;;;6.10;4.83;;;22.20;99.90;;;;;;4972742;28;20227;-60
2021/06/17 04:24:20;;;;;;;6.07;4.57;;;22.20;99.90;;;;;;4972626;28;20209;-62
2021/06/17 04:26:47;;;;;;;7.83;5.27;;;22.30;99.90;;;;;;4972920;28;20220;-62
2021/06/17 04:29:15;;;;;;;6.03;4.60;;;22.30;99.90;;;;;;4972574;28;20613;-61
2021/06/17 04:31:43;;;;;;;6.13;4.97;;;22.30;99.90;;;;;;4972681;28;20216;-61
2021/06/17 04:34:10;;;;;;;6.00;5.03;;;22.40;99.90;;;;;;4972512;28;20228;-60
2021/06/17 04:36:38;;;;;;;5.73;4.70;;;22.40;99.90;;;;;;4972586;28;20215;-61
2021/06/17 04:39:07;;;;;;;7.57;5.07;;;22.50;99.90;;;;;;4972365;28;20223;-62
2021/06/17 04:41:34;;;;;;;5.50;4.97;;;22.50;99.90;;;;;;4972427;28;20251;-62
2021/06/17 04:44:02;;;;;;;7.07;5.50;;;22.50;99.90;;;;;;4972498;28;20211;-61
2021/06/17 04:46:30;;;;;;;6.37;4.70;;;22.50;99.90;;;;;;4972645;28;20213;-62
2021/06/17 04:48:57;;;;;;;7.07;4.80;;;22.60;99.90;;;;;;4972230;28;20221;-61
2021/06/17 04:51:26;;;;;;;6.20;4.63;;;22.60;99.90;;;;;;4972112;28;20216;-62
2021/06/17 04:53:53;;;;;;;6.87;4.87;;;22.60;99.90;;;;;;4972503;28;20597;-62
2021/06/17 04:56:23;;;;;;;8.87;5.30;;;22.70;99.90;;;;;;4972557;28;20204;-62
2021/06/17 04:58:50;;;;;;;7.07;4.73;;;22.70;99.90;;;;;;4972418;28;20229;-62
2021/06/17 05:01:18;;;;;;;8.10;5.00;;;22.70;99.90;;;;;;4972247;28;20224;-62
2021/06/17 05:03:45;;;;;;;7.23;4.80;;;22.80;99.90;;;;;;4972201;28;20210;-63
2021/06/17 05:06:13;;;;;;;6.00;5.03;;;22.80;99.90;;;;;;4972031;28;20216;-61
2021/06/17 05:11:26;;;;;;;7.80;5.00;;;22.90;99.90;;;;;;4970118;28;20731;-61
2021/06/17 05:13:53;;;;;;;8.13;4.97;;;22.90;99.90;;;;;;4971199;28;20243;-62
2021/06/17 05:16:20;;;;;;;8.73;4.83;;;23.00;99.90;;;;;;4971703;28;20212;-61
2021/06/17 05:18:46;;;;;;;8.17;4.87;;;23.00;99.90;;;;;;4971926;28;20239;-61
2021/06/17 05:21:13;;;;;;;8.47;4.73;;;23.10;99.90;;;;;;4971492;28;20215;-62
2021/06/17 05:23:41;;;;;;;6.20;4.63;;;23.10;99.90;;;;;;4971934;28;20212;-61
2021/06/17 05:26:09;;;;;;;6.70;4.90;;;23.20;99.90;;;;;;4971578;28;20208;-63
2021/06/17 05:28:37;;;;;;;7.77;4.83;;;23.20;99.90;;;;;;4971450;28;20240;-63
2021/06/17 05:31:07;;;;;;;7.50;4.87;;;23.30;99.90;;;;;;4971110;28;20291;-62
2021/06/17 05:33:34;;;;;;;6.67;4.60;;;23.40;99.90;;;;;;4971722;28;20239;-61
2021/06/17 05:36:02;;;;;;;6.73;4.23;;;23.40;99.90;;;;;;4971636;28;20209;-61
2021/06/17 05:38:31;;;;;;;9.97;4.37;;;23.50;99.90;;;;;;4971590;28;20232;-61
2021/06/17 05:40:57;;;;;;;6.07;4.50;;;23.60;99.90;;;;;;4970903;28;20247;-62
2021/06/17 05:43:24;;;;;;;6.77;4.57;;;23.70;99.90;;;;;;4971189;28;20231;-62
2021/06/17 05:45:52;;;;;;;5.43;4.37;;;23.70;99.90;;;;;;4971226;28;20223;-62
2021/06/17 05:48:19;;;;;;;10.70;4.70;;;23.80;99.90;;;;;;4971409;28;20230;-62
2021/06/17 05:50:45;;;;;;;5.63;4.80;;;23.90;99.90;;;;;;4970247;28;20208;-62
2021/06/17 05:53:12;;;;;;;6.77;4.50;;;23.90;99.90;;;;;;4971212;28;20212;-62
2021/06/17 05:55:39;;;;;;;6.23;4.60;;;24.10;99.90;;;;;;4971324;28;20212;-62
2021/06/17 05:58:06;;;;;;;7.00;4.50;;;24.20;99.90;;;;;;4970999;28;20225;-62
2021/06/17 06:00:33;;;;;;;10.20;4.30;;;24.30;99.90;;;;;;4970985;28;20309;-62
2021/06/17 06:03:00;;;;;;;8.63;5.10;;;24.40;99.90;;;;;;4971318;28;20208;-62
2021/06/17 06:05:28;;;;;;;7.50;5.10;;;24.50;99.90;;;;;;4970851;28;20795;-63
2021/06/17 06:07:59;;;;;;;7.67;4.53;;;24.60;99.90;;;;;;4970852;28;20290;-63
2021/06/17 06:10:26;;;;;;;6.40;4.27;;;24.60;99.90;;;;;;4970395;28;20208;-61
2021/06/17 06:12:53;;;;;;;5.83;4.30;;;24.70;99.90;;;;;;4970937;28;20219;-63
2021/06/17 06:15:19;;;;;;;6.63;4.70;;;24.80;99.90;;;;;;4970880;28;20225;-63
2021/06/17 06:17:46;;;;;;;8.57;4.70;;;24.90;99.90;;;;;;4971145;28;20232;-62
2021/06/17 06:20:15;;;;;;;8.03;4.50;;;25.00;99.90;;;;;;4970514;28;20216;-64
2021/06/17 06:22:43;;;;;;;7.80;4.50;;;25.00;99.90;;;;;;4970971;28;20608;-61
2021/06/17 06:25:10;;;;;;;7.03;4.20;;;25.10;99.90;;;;;;4970480;28;20250;-62
2021/06/17 06:27:37;;;;;;;6.97;4.43;;;25.10;99.90;;;;;;4970629;28;20235;-61
2021/06/17 06:30:05;;;;;;;6.03;3.93;;;25.20;99.90;;;;;;4970710;28;20212;-62
2021/06/17 06:32:31;;;;;;;5.47;4.53;;;25.30;99.90;;;;;;4970728;28;20208;-62
2021/06/17 06:34:58;;;;;;;7.80;4.43;;;25.40;99.90;;;;;;4970577;28;20229;-60
2021/06/17 06:37:27;;;;;;;7.47;4.73;;;25.50;99.90;;;;;;4970366;28;20774;-62
2021/06/17 06:39:54;;;;;;;7.80;4.93;;;25.60;99.90;;;;;;4970139;28;20668;-61
2021/06/17 06:42:20;;;;;;;6.63;4.90;;;25.70;99.90;;;;;;4970494;28;20623;-60
2021/06/17 06:44:47;;;;;;;7.23;4.70;;;25.80;99.90;;;;;;4970601;28;20208;-60
2021/06/17 06:47:14;;;;;;;9.20;5.27;;;25.90;99.90;;;;;;4970310;28;20242;-62
2021/06/17 06:49:40;;;;;;;8.33;4.53;;;26.00;99.90;;;;;;4969988;28;20212;-64
2021/06/17 06:52:07;;;;;;;7.60;4.73;;;26.10;99.90;;;;;;4970118;28;20212;-63
2021/06/17 06:54:35;;;;;;;5.80;5.00;;;26.30;99.90;;;;;;4970172;28;20228;-65
2021/06/17 06:57:02;;;;;;;7.77;5.07;;;26.40;99.90;;;;;;4970569;28;20232;-65
2021/06/17 06:59:29;;;;;;;7.00;4.50;;;26.60;99.90;;;;;;4970008;28;20212;-64
2021/06/17 07:01:57;;;;;;;6.20;4.77;;;26.70;99.90;;;;;;4970317;28;20585;-65
2021/06/17 07:04:23;;;;;;;6.27;4.33;;;26.80;99.90;;;;;;4970077;28;20215;-63
2021/06/17 07:06:50;;;;;;;7.80;4.63;;;27.00;99.90;;;;;;4969938;28;20243;-63
2021/06/17 07:09:17;;;;;;;7.50;4.53;;;27.00;99.90;;;;;;4970286;28;20215;-64
2021/06/17 07:11:46;;;;;;;6.23;4.53;;;27.10;99.90;;;;;;4970111;28;20204;-63
2021/06/17 07:14:12;;;;;;;8.10;4.30;;;27.20;99.90;;;;;;4970092;28;20692;-63
2021/06/17 07:16:39;;;;;;;9.93;4.40;;;27.40;99.90;;;;;;4970008;28;20208;-63
2021/06/17 07:19:07;;;;;;;7.93;4.43;;;27.60;99.90;;;;;;4970178;28;20212;-63
2021/06/17 07:21:34;;;;;;;12.40;5.37;;;27.70;99.90;;;;;;4969313;28;20220;-63
2021/06/17 07:24:01;;;;;;;7.17;4.30;;;27.90;99.90;;;;;;4970062;28;20599;-64
2021/06/17 07:26:28;;;;;;;182.67;36.10;;;28.10;99.90;;;;;;4969966;28;20615;-63
2021/06/17 07:28:57;;;;;;;107.00;27.33;;;28.30;99.90;;;;;;4969754;28;20740;-63
2021/06/17 07:31:24;;;;;;;8.03;4.43;;;28.20;99.90;;;;;;4969255;28;20212;-63
2021/06/17 07:33:50;;;;;;;6.23;4.43;;;28.30;99.90;;;;;;4969806;28;20216;-64
2021/06/17 07:36:17;;;;;;;4.60;3.97;;;28.40;99.90;;;;;;4970135;28;20208;-65
2021/06/17 07:38:44;;;;;;;7.37;4.20;;;28.30;99.90;;;;;;4970181;28;20604;-64
2021/06/17 07:41:11;;;;;;;5.00;4.50;;;28.40;99.90;;;;;;4969907;28;20204;-63
2021/06/17 07:43:38;;;;;;;6.93;4.30;;;28.50;99.90;;;;;;4970174;28;20216;-64
2021/06/17 07:46:06;;;;;;;6.37;4.70;;;28.70;99.90;;;;;;4972094;28;20212;-64
2021/06/17 07:48:34;;;;;;;6.47;4.50;;;28.80;99.90;;;;;;4971424;28;20228;-63
2021/06/17 07:51:00;;;;;;;4.60;3.93;;;28.90;99.90;;;;;;4970020;28;20215;-64
2021/06/17 07:53:27;;;;;;;6.90;4.70;;;29.10;99.90;;;;;;4978510;28;20219;-63
2021/06/17 07:55:54;;;;;;;4.97;4.43;;;29.30;99.90;;;;;;4983940;28;20310;-64
2021/06/17 07:58:21;;;;;;;5.63;4.30;;;29.40;99.90;;;;;;4983816;28;20331;-63
2021/06/17 08:00:47;;;;;;;7.03;4.53;;;29.40;99.90;;;;;;4973610;28;20213;-64
2021/06/17 08:03:15;;;;;;;5.57;4.30;;;29.50;99.90;;;;;;4969394;28;20208;-65
2021/06/17 08:05:42;;;;;;;4.80;4.33;;;29.60;99.90;;;;;;4969723;28;20211;-64
2021/06/17 08:08:09;;;;;;;5.20;4.37;;;29.60;99.90;;;;;;4969635;28;20264;-62
2021/06/17 08:10:36;;;;;;;8.03;4.30;;;29.50;99.90;;;;;;4969209;28;20223;-63
2021/06/17 08:13:03;;;;;;;5.93;3.90;;;29.60;99.90;;;;;;4970579;28;20208;-63
2021/06/17 08:15:30;;;;;;;6.60;4.03;;;29.60;99.90;;;;;;4972659;28;20244;-63
2021/06/17 08:17:57;;;;;;;5.93;4.50;;;29.80;99.90;;;;;;4972740;28;20240;-63
2021/06/17 08:20:25;;;;;;;9.38;5.15;;;30.00;99.90;;;;;;4972450;28;20209;-64
2021/06/17 08:22:52;;;;;;;7.10;4.30;;;30.20;99.90;;;;;;4972979;28;20213;-63
2021/06/17 08:25:19;;;;;;;5.43;4.10;;;30.30;99.90;;;;;;4972667;28;20700;-64
2021/06/17 08:27:46;;;;;;;127.78;23.20;;;30.40;99.90;;;;;;4972104;28;20713;-64
2021/06/17 08:30:16;;;;;;;12.57;5.57;;;30.50;99.90;;;;;;4971936;28;20258;-63
2021/06/17 08:32:43;;;;;;;34.70;9.38;;;30.50;99.90;;;;;;4972632;28;20397;-62
2021/06/17 08:35:10;;;;;;;6.88;4.63;;;30.50;99.90;;;;;;4972841;28;20224;-63
2021/06/17 08:37:38;;;;;;;8.20;4.70;;;30.50;99.90;;;;;;4972281;28;20277;-64
2021/06/17 08:40:06;;;;;;;7.15;4.22;;;30.50;99.90;;;;;;4971797;28;20212;-63
2021/06/17 08:42:33;;;;;;;5.15;3.78;;;30.50;99.90;;;;;;4972253;28;20716;-63
2021/06/17 08:45:05;;;;;;;5.63;4.55;;;30.70;99.90;;;;;;4972596;28;20216;-63
2021/06/17 08:47:32;;;;;;;5.25;4.57;;;30.70;99.90;;;;;;4972189;28;20239;-63
2021/06/17 08:50:01;;;;;;;4.68;3.90;;;30.80;99.90;;;;;;4967529;28;21132;-66
2021/06/17 08:52:33;;;;;;;4.90;4.03;;;30.90;99.90;;;;;;4967699;28;20208;-65
2021/06/17 08:55:13;;;;;;;6.25;4.22;;;31.00;99.90;;;;;;4971271;28;20232;-65
2021/06/17 08:57:39;;;;;;;20.70;9.90;;;31.00;99.90;;;;;;4972437;28;20595;-66
2021/06/17 09:00:41;;;;;;;11.45;6.45;;;31.20;99.90;;;;;;4971967;28;20219;-64
2021/06/17 09:03:10;;;;;;;55.58;34.60;;;31.20;99.90;;;;;;4971952;28;20216;-64
2021/06/17 09:05:38;;;;;;;36.03;27.65;;;31.30;99.90;;;;;;4972187;28;20216;-64
2021/06/17 09:08:07;;;;;;;6.07;4.22;;;31.50;99.90;;;;;;4972146;28;20236;-65
2021/06/17 09:10:39;;;;;;;5.15;4.10;;;31.70;99.90;;;;;;4971756;28;20212;-63
2021/06/17 09:13:06;;;;;;;6.53;4.85;;;31.70;99.90;;;;;;4972060;28;20216;-64
2021/06/17 09:15:37;;;;;;;6.10;3.90;;;31.90;99.90;;;;;;4971666;28;20225;-65
2021/06/17 09:18:15;;;;;;;4.65;4.05;;;31.90;99.90;;;;;;4971651;28;20228;-62
2021/06/17 09:20:48;;;;;;;4.00;3.70;;;32.00;99.90;;;;;;4971926;28;20600;-62
2021/06/17 09:23:26;;;;;;;5.47;3.97;;;31.80;99.90;;;;;;4971701;28;20215;-64
2021/06/17 09:25:57;;;;;;;4.40;3.25;;;31.80;99.90;;;;;;4970697;28;20209;-62
2021/06/17 09:28:24;;;;;;;4.93;3.70;;;31.90;99.90;;;;;;4971501;28;20240;-68
2021/06/17 09:30:50;;;;;;;4.90;3.90;;;32.00;99.90;;;;;;4971750;28;20216;-66
2021/06/17 09:33:17;;;;;;;5.63;3.55;;;32.00;99.90;;;;;;4971367;28;20219;-66
2021/06/17 09:35:58;;;;;;;6.68;3.88;;;31.80;99.90;;;;;;4971688;28;20768;-67
2021/06/17 09:38:26;;;;;;;38.50;6.70;;;31.70;99.90;;;;;;4971462;28;20224;-62
2021/06/17 09:40:56;;;;;;;6.72;3.53;;;31.70;99.90;;;;;;4971345;28;20212;-64
2021/06/17 09:43:25;;;;;;;8.02;3.88;;;31.80;99.90;;;;;;4971145;28;20632;-62
2021/06/17 09:45:54;;;;;;;9.07;4.07;;;31.80;99.90;;;;;;4971631;28;20240;-63
2021/06/17 09:48:45;;;;;;;10.30;3.83;;;31.90;99.90;;;;;;4971552;28;20747;-61
2021/06/17 09:51:27;;;;;;;10.60;4.10;;;32.00;99.90;;;;;;4957328;28;20208;-63
2021/06/17 09:54:05;;;;;;;9.00;3.85;;;31.90;99.90;;;;;;4971094;28;20219;-63
2021/06/17 09:56:35;;;;;;;9.50;4.10;;;32.00;99.90;;;;;;4971183;28;20263;-63
2021/06/17 09:59:01;;;;;;;7.97;4.32;;;32.10;99.90;;;;;;4971166;28;20219;-62
2021/06/17 10:01:35;;;;;;;4.85;4.15;;;32.10;99.90;;;;;;4970734;28;20677;-63
2021/06/17 10:04:03;;;;;;;8.13;4.22;;;32.10;99.90;;;;;;4970671;28;20212;-62
2021/06/17 10:06:30;;;;;;;8.18;3.70;;;32.20;99.90;;;;;;4971188;28;20204;-63
2021/06/17 10:08:57;;;;;;;10.48;4.10;;;32.50;99.90;;;;;;4971419;28;20598;-63
2021/06/17 10:11:24;;;;;;;6.72;4.57;;;32.60;99.90;;;;;;4971016;28;20274;-63
2021/06/17 10:13:52;;;;;;;12.02;4.47;;;32.50;99.90;;;;;;4970807;28;20216;-64
2021/06/17 10:16:20;;;;;;;8.50;4.00;;;32.50;99.90;;;;;;4970641;28;20738;-64
2021/06/17 10:18:46;;;;;;;6.07;3.90;;;32.50;99.90;;;;;;4970642;28;20236;-64
2021/06/17 10:21:14;;;;;;;7.82;4.07;;;32.40;99.90;;;;;;4970630;28;20677;-64
2021/06/17 10:23:42;;;;;;;8.38;3.85;;;32.30;99.90;;;;;;4970699;28;20247;-64
2021/06/17 10:26:09;;;;;;;8.38;4.35;;;32.40;99.90;;;;;;4970729;28;20555;-63
2021/06/17 10:28:40;;;;;;;5.82;3.95;;;32.50;99.90;;;;;;4970332;28;20236;-64
2021/06/17 10:31:08;;;;;;;4.80;3.53;;;32.60;99.90;;;;;;4969098;28;20215;-64
2021/06/17 10:33:36;;;;;;;4.32;3.78;;;32.60;99.90;;;;;;4969455;28;20208;-64
2021/06/17 10:36:38;;;;;;;7.28;3.70;;;32.60;99.90;;;;;;4969391;28;20327;-64
2021/06/17 10:39:17;;;;;;;3.90;3.50;;;32.60;99.90;;;;;;4910083;29;20749;-65
2021/06/17 10:42:09;;;;;;;5.53;3.72;;;32.70;99.90;;;;;;4962590;28;20218;-66
2021/06/17 10:44:36;;;;;;;5.10;3.53;;;32.70;99.90;;;;;;4969584;28;20299;-65
2021/06/17 10:47:05;;;;;;;4.20;3.63;;;32.60;99.90;;;;;;4969941;28;20229;-65
2021/06/17 10:50:03;;;;;;;6.45;4.20;;;32.70;99.90;;;;;;4969681;28;20582;-64
2021/06/17 10:52:31;;;;;;;7.72;4.03;;;32.80;99.90;;;;;;4969898;28;20586;-65
2021/06/17 10:54:59;;;;;;;4.72;3.90;;;32.90;99.90;;;;;;4969431;28;20224;-64
2021/06/17 10:57:52;;;;;;;6.72;3.95;;;33.00;99.90;;;;;;4969834;28;20228;-64
2021/06/17 11:00:44;;;;;;;7.35;3.40;;;33.10;99.90;;;;;;4969139;28;20254;-64
2021/06/17 11:03:37;;;;;;;6.72;3.63;;;33.20;99.90;;;;;;4969592;28;20208;-64
2021/06/17 11:06:05;;;;;;;7.05;3.55;;;33.30;99.90;;;;;;4969425;28;20262;-64
2021/06/17 11:08:31;;;;;;;4.10;3.45;;;33.30;99.90;;;;;;4969242;28;20228;-64
2021/06/17 11:11:03;;;;;;;4.20;3.70;;;33.40;99.90;;;;;;4969365;28;20219;-63
2021/06/17 11:13:31;;;;;;;5.15;3.72;;;33.30;99.90;;;;;;4969269;28;20208;-64
2021/06/17 11:16:00;;;;;;;4.32;3.15;;;33.20;99.90;;;;;;4969338;28;20235;-64
2021/06/17 11:19:01;;;;;;;5.03;3.00;;;33.20;99.90;;;;;;4969478;28;20260;-64
2021/06/17 11:21:47;;;;;;;5.63;3.40;;;33.10;99.90;;;;;;4937012;28;20734;-64
2021/06/17 11:24:33;;;;;;;6.78;3.65;;;33.30;99.90;;;;;;4969040;28;20728;-64
2021/06/17 11:27:00;;;;;;;3.17;2.88;;;33.30;99.90;;;;;;4969104;28;20243;-62
2021/06/17 11:29:55;;;;;;;4.07;3.42;;;33.20;99.90;;;;;;4967863;28;50645;-63
2021/06/17 11:32:40;;;;;;;3.70;3.10;;;33.30;99.90;;;;;;4969655;28;20559;-63
2021/06/17 11:35:21;;;;;;;4.55;3.55;;;33.40;99.90;;;;;;4969919;28;20611;-64
2021/06/17 11:37:51;;;;;;;5.32;3.30;;;33.50;99.90;;;;;;4969478;28;20235;-64
2021/06/17 11:40:18;;;;;;;3.70;3.22;;;33.50;99.90;;;;;;4969789;28;20212;-65
2021/06/17 11:42:45;;;;;;;4.32;3.58;;;33.60;99.90;;;;;;4969661;28;20235;-63
2021/06/17 11:45:12;;;;;;;4.57;3.10;;;33.70;99.90;;;;;;4969712;28;20291;-64
2021/06/17 11:47:46;;;;;;;7.75;3.33;;;33.70;99.90;;;;;;4969795;28;20232;-64
2021/06/17 11:50:15;;;;;;;5.07;2.80;;;33.70;99.90;;;;;;4972823;28;20222;-64
2021/06/17 11:52:44;;;;;;;5.35;3.00;;;33.80;99.90;;;;;;4973236;28;20215;-64
2021/06/17 11:55:11;;;;;;;5.25;2.90;;;33.80;99.90;;;;;;4972737;28;20212;-66
2021/06/17 11:57:40;;;;;;;3.28;2.65;;;33.80;99.90;;;;;;4973043;28;20236;-64
2021/06/17 12:00:10;;;;;;;3.10;2.80;;;33.70;99.90;;;;;;4972766;28;20208;-66
2021/06/17 12:02:39;;;;;;;4.75;2.80;;;33.50;99.90;;;;;;4972881;28;20215;-65
2021/06/17 12:05:10;;;;;;;5.20;2.90;;;33.60;99.90;;;;;;4972647;28;20645;-64
2021/06/17 12:07:40;;;;;;;4.20;2.95;;;33.80;99.90;;;;;;4975996;28;20251;-65
2021/06/17 12:10:13;;;;;;;3.70;3.22;;;33.50;99.90;;;;;;4975039;28;20216;-66
2021/06/17 12:12:41;;;;;;;3.97;3.10;;;33.60;99.90;;;;;;4973759;28;20208;-64
2021/06/17 12:15:09;;;;;;;3.80;2.67;;;33.80;99.90;;;;;;4972875;28;20277;-63
2021/06/17 12:17:40;;;;;;;5.03;2.55;;;33.80;99.90;;;;;;4974049;28;20285;-63
2021/06/17 12:20:12;;;;;;;5.35;2.90;;;33.80;99.90;;;;;;4973584;28;20212;-63
2021/06/17 12:22:43;;;;;;;5.28;2.85;;;33.90;99.90;;;;;;4973465;28;20213;-63
2021/06/17 12:25:10;;;;;;;6.22;2.97;;;34.00;99.90;;;;;;4972603;28;20212;-63
2021/06/17 12:27:41;;;;;;;4.47;3.13;;;34.00;99.90;;;;;;4972446;28;20232;-64
2021/06/17 12:30:29;;;;;;;4.20;3.65;;;33.90;99.90;;;;;;4972723;28;20212;-63
2021/06/17 12:33:02;;;;;;;4.90;3.20;;;33.90;99.90;;;;;;4972302;28;20191;-64
2021/06/17 12:35:37;;;;;;;5.18;3.20;;;33.90;99.90;;;;;;4972434;28;20255;-64
2021/06/17 12:38:05;;;;;;;4.90;3.17;;;34.00;99.90;;;;;;4972050;28;20232;-63
2021/06/17 12:40:35;;;;;;;5.25;3.22;;;34.20;99.90;;;;;;4972577;28;20220;-63
2021/06/17 12:43:20;;;;;;;6.53;3.50;;;34.20;99.90;;;;;;4972064;28;20220;-64
2021/06/17 12:45:59;;;;;;;6.60;3.67;;;34.20;99.90;;;;;;4972551;28;20287;-64
2021/06/17 12:48:58;;;;;;;4.38;3.30;;;34.20;99.90;;;;;;4972142;28;20228;-63
2021/06/17 12:54:22;;;;;;;6.30;3.30;;;34.00;99.90;;;;;;4972163;28;20223;-65
2021/06/17 12:56:51;;;;;;;5.55;2.88;;;33.90;99.90;;;;;;4972186;28;20224;-62
2021/06/17 12:59:17;;;;;;;5.68;2.92;;;34.00;99.90;;;;;;4972037;28;20208;-62
2021/06/17 13:01:47;;;;;;;8.77;3.10;;;33.80;99.90;;;;;;4972275;28;20208;-62
2021/06/17 13:04:15;;;;;;;15.15;3.47;;;34.00;99.90;;;;;;4972019;28;20208;-65